Airfield :
LOGIN :

Register | Disclaimer

   EN    FR    IT 

 










Legend :    VFR   Marginal VFR   IFR   Intensive IFR   Very Intensive IFR
Visi :
Ceiling :
>= 8 km
>= 3000ft
5 to 8 km
1000 to 3000 ft
1500m to 5 km
500 to 1000 ft
800 to 1500m
200 to 500 ft
< 800m
< 200 ft
Symbols :   Thunderstorms  Fog  Heavy snow  Heavy precipitations  Wind > 20 kt
SIGMETs :     Misc.  Thunderstorms  Icing  Turbulence  Mountain Waves  Volcanic Ashes







- Airport Elevation : 59 ft
- IATA code : TSF


LIPH - Treviso

CURRENT METAR :
  • 250620Z 10004KT 080V140 9999 BKN050 19/17 Q1018

EXPIRED METARs :
  • 250550Z 05003KT 9999 FEW025 BKN050 19/16 Q1018
  • 250520Z 03003KT 350V070 9999 BKN060 18/16 Q1017
  • 250450Z AUTO 01003KT 350V070 9999 BKN057/// 18/16 Q1017
  • 250420Z AUTO 36003KT 9999 SCT056/// BKN095/// 17/15 Q1017
  • 250350Z AUTO 36003KT 9999 FEW100/// 17/15 Q1016

TAF TAF LIPH
Valid from the 25 at 06:00 until the 26 at 06:00 UTC


250500Z 2506/2606 06007KT CAVOK
BECMG 2509/2511 15010KT
BECMG 2516/2518 VRB05KT
No reported NOTAMs for that airfield.
1 SIGMET reported for the Milano FIR (LIMM) :
 
Severe turbulence
LIMM SIGMET 1 VALID 250400/250800 LIMM- LIMM MILANO FIR SEV TURB FCST E OF LINE N4646 E01218 - N4337 E01242 FL260/380 STNR WKN=



MET'MAP, your aeronautical weather chart ! - Copyright ORBIFLY December 2007 - Disclaimer

ORBIFLY MET'MAP TEAM :

Programming & Development : Alexandra Zaïnal
Concept & Development : Baudouin d'Aumeries
Co-Development & Prog : Marc-Olivier Méhu
Technical & hardware support : Manuel Goepfert

Contact : metmap@orbifly.com




SOURCES & CREDITS :

   NOAA